createdAt,value
2023-02-01T00:00:04.928Z,99.99
2023-02-01T00:01:05.768Z,99.99
2023-02-01T00:02:05.688Z,99.99
2023-02-01T00:03:04.911Z,99.99
2023-02-01T00:04:05.791Z,99.99
2023-02-01T00:05:05.307Z,99.99
2023-02-01T00:06:05.822Z,99.99
2023-02-01T00:07:04.911Z,99.99
2023-02-01T00:08:04.865Z,99.99
2023-02-01T00:09:04.867Z,99.99
2023-02-01T00:10:05.704Z,99.99
2023-02-01T00:11:04.855Z,99.99
2023-02-01T00:12:04.835Z,99.99
2023-02-01T00:13:04.819Z,99.99
2023-02-01T00:14:05.694Z,99.99
2023-02-01T00:15:05.776Z,99.99
2023-02-01T00:16:04.870Z,99.99
2023-02-01T00:17:04.799Z,99.99
2023-02-01T00:18:04.781Z,99.99
2023-02-01T00:19:04.778Z,99.99
2023-02-01T00:20:05.283Z,99.99
2023-02-01T00:21:04.761Z,99.99
2023-02-01T00:22:04.760Z,99.99
2023-02-01T00:23:04.749Z,99.99
2023-02-01T00:24:04.726Z,99.99
2023-02-01T00:25:55.622Z,99.99
2023-02-01T00:26:55.679Z,99.99
2023-02-01T00:27:55.606Z,99.99
2023-02-01T00:28:55.586Z,99.99
2023-02-01T00:29:55.580Z,99.99
2023-02-01T00:30:55.629Z,99.99
2023-02-01T00:31:55.578Z,99.68
2023-02-01T00:32:55.568Z,99.99
2023-02-01T00:33:55.546Z,99.48
2023-02-01T00:34:55.545Z,99.58
2023-02-01T00:35:55.543Z,99.68
2023-02-01T00:36:55.519Z,99.68
2023-02-01T00:37:55.523Z,99.79
2023-02-01T00:38:55.505Z,99.74
2023-02-01T00:39:55.505Z,99.12
2023-02-01T00:40:55.499Z,98.91
2023-02-01T00:41:55.479Z,98.54
2023-02-01T00:42:55.487Z,98.71
2023-02-01T00:43:55.476Z,98.29
2023-02-01T00:44:55.463Z,97.98
2023-02-01T00:45:55.450Z,97.88
2023-02-01T00:46:55.536Z,98.08
2023-02-01T00:47:55.438Z,98.19
2023-02-01T00:48:55.426Z,98.29
2023-02-01T00:49:55.425Z,97.98
2023-02-01T00:50:55.412Z,97.77
2023-02-01T00:51:55.413Z,97.77
2023-02-01T00:52:55.392Z,97.93
2023-02-01T00:53:55.384Z,97.62
2023-02-01T00:54:55.378Z,97.67
2023-02-01T00:55:55.365Z,97.72
2023-02-01T00:56:55.355Z,97.25
2023-02-01T00:57:55.352Z,97.67
2023-02-01T00:58:55.348Z,97.52
2023-02-01T00:59:55.340Z,97.20
2023-02-01T01:00:55.428Z,97.41
2023-02-01T01:01:55.402Z,97.20
2023-02-01T01:02:55.311Z,97.31
2023-02-01T01:03:55.305Z,97.52
2023-02-01T01:04:55.308Z,97.47
2023-02-01T01:05:55.291Z,96.89
2023-02-01T01:06:55.288Z,96.48
2023-02-01T01:07:55.296Z,96.48
2023-02-01T01:08:55.267Z,96.79
2023-02-01T01:09:55.257Z,97.20
2023-02-01T01:10:55.251Z,97.31
2023-02-01T01:11:55.243Z,97.58
2023-02-01T01:12:55.230Z,97.52
2023-02-01T01:13:55.232Z,96.69
2023-02-01T01:14:56.319Z,97.00
2023-02-01T01:15:56.327Z,97.27
2023-02-01T01:16:56.296Z,97.68
2023-02-01T01:17:56.303Z,97.47
2023-02-01T01:18:56.304Z,97.06
2023-02-01T01:19:58.914Z,97.16
2023-02-01T01:20:56.267Z,97.47
2023-02-01T01:21:56.274Z,97.78
2023-02-01T01:22:56.254Z,97.89
2023-02-01T01:23:56.273Z,97.99
2023-02-01T01:24:56.249Z,97.68
2023-02-01T01:25:56.228Z,97.85
2023-02-01T01:26:56.226Z,97.68
2023-02-01T01:27:56.225Z,98.10
2023-02-01T01:28:57.064Z,97.58
2023-02-01T01:29:56.193Z,97.99
2023-02-01T01:30:56.987Z,97.99
2023-02-01T01:31:56.227Z,97.78
2023-02-01T01:32:56.172Z,97.68
2023-02-01T01:33:57.058Z,98.10
2023-02-01T01:34:56.153Z,97.89
2023-02-01T01:35:56.149Z,97.89
2023-02-01T01:36:56.144Z,97.68
2023-02-01T01:37:56.122Z,98.16
2023-02-01T01:38:56.133Z,97.85
2023-02-01T01:39:56.117Z,97.64
2023-02-01T01:40:56.103Z,97.43
2023-02-01T01:41:56.088Z,97.58
2023-02-01T01:42:56.087Z,97.43
2023-02-01T01:43:56.092Z,97.02
2023-02-01T01:44:56.078Z,97.22
2023-02-01T01:45:56.063Z,97.43
2023-02-01T01:46:56.090Z,97.33
2023-02-01T01:47:56.041Z,97.33
2023-02-01T01:48:56.037Z,97.02
2023-02-01T01:49:56.021Z,97.33
2023-02-01T01:50:56.029Z,97.22
2023-02-01T01:51:56.036Z,97.33
2023-02-01T01:52:56.000Z,97.33
2023-02-01T01:53:56.029Z,97.12
2023-02-01T01:54:57.000Z,97.12
2023-02-01T01:55:56.000Z,97.28
2023-02-01T01:56:55.978Z,97.43
2023-02-01T01:57:55.964Z,97.38
2023-02-01T01:58:55.956Z,96.97
2023-02-01T01:59:55.963Z,96.45
2023-02-01T02:00:56.021Z,96.24
2023-02-01T02:01:56.954Z,96.34
2023-02-01T02:02:55.943Z,96.14
2023-02-01T02:03:55.939Z,96.34
2023-02-01T02:04:55.926Z,95.93
2023-02-01T02:05:55.906Z,96.14
2023-02-01T02:06:55.897Z,95.83
2023-02-01T02:07:55.881Z,95.16
2023-02-01T02:08:56.564Z,95.51
2023-02-01T02:10:00.839Z,95.31
2023-02-01T02:10:57.888Z,95.31
2023-02-01T02:11:55.873Z,95.51
2023-02-01T02:12:55.853Z,95.51
2023-02-01T02:13:55.832Z,95.47
2023-02-01T02:14:55.828Z,95.51
2023-02-01T02:15:56.561Z,95.78
2023-02-01T02:16:55.809Z,95.10
2023-02-01T02:17:55.807Z,95.06
2023-02-01T02:18:55.793Z,94.64
2023-02-01T02:19:55.811Z,95.06
2023-02-01T02:20:56.562Z,94.58
2023-02-01T02:21:55.780Z,94.23
2023-02-01T02:22:55.776Z,94.74
2023-02-01T02:23:55.756Z,94.54
2023-02-01T02:24:55.756Z,94.43
2023-02-01T02:25:55.748Z,94.43
2023-02-01T02:26:55.745Z,94.43
2023-02-01T02:27:55.732Z,94.64
2023-02-01T02:28:55.722Z,94.85
2023-02-01T02:29:55.707Z,95.06
2023-02-01T02:30:55.715Z,94.85
2023-02-01T02:31:55.770Z,95.06
2023-02-01T02:32:56.496Z,94.54
2023-02-01T02:33:55.675Z,94.37
2023-02-01T02:34:55.670Z,94.64
2023-02-01T02:35:55.699Z,94.23
2023-02-01T02:36:55.652Z,94.27
2023-02-01T02:37:55.648Z,94.23
2023-02-01T02:38:55.652Z,94.02
2023-02-01T02:39:55.630Z,93.81
2023-02-01T02:40:55.641Z,94.12
2023-02-01T02:41:56.615Z,93.91
2023-02-01T02:42:58.222Z,93.66
2023-02-01T02:43:56.612Z,93.91
2023-02-01T02:44:55.593Z,94.02
2023-02-01T02:45:55.623Z,93.77
2023-02-01T02:46:55.578Z,94.23
2023-02-01T02:47:55.581Z,94.49
2023-02-01T02:48:55.563Z,94.74
2023-02-01T02:49:56.496Z,94.29
2023-02-01T02:50:55.548Z,93.50
2023-02-01T02:51:55.541Z,93.91
2023-02-01T02:52:55.578Z,94.29
2023-02-01T02:53:57.068Z,93.66
2023-02-01T02:54:55.509Z,93.87
2023-02-01T02:55:56.513Z,93.77
2023-02-01T02:56:55.519Z,93.46
2023-02-01T02:57:55.497Z,93.81
2023-02-01T02:58:55.479Z,93.66
2023-02-01T02:59:55.486Z,93.35
2023-02-01T03:00:55.515Z,93.60
2023-02-01T03:01:55.460Z,93.04
2023-02-01T03:02:55.527Z,93.35
2023-02-01T03:03:55.452Z,93.35
2023-02-01T03:04:55.462Z,93.81
2023-02-01T03:05:55.431Z,93.46
2023-02-01T03:06:55.429Z,93.71
2023-02-01T03:07:55.427Z,93.56
2023-02-01T03:08:55.403Z,94.08
2023-02-01T03:09:55.398Z,93.81
2023-02-01T03:10:55.393Z,93.91
2023-02-01T03:11:55.398Z,93.87
2023-02-01T03:12:55.378Z,93.71
2023-02-01T03:13:55.371Z,93.29
2023-02-01T03:14:55.358Z,93.77
2023-02-01T03:15:55.384Z,93.46
2023-02-01T03:16:55.349Z,93.15
2023-02-01T03:17:55.328Z,93.04
2023-02-01T03:18:55.343Z,93.04
2023-02-01T03:19:55.319Z,93.25
2023-02-01T03:20:55.316Z,92.84
2023-02-01T03:21:55.026Z,92.74
2023-02-01T03:22:55.290Z,92.53
2023-02-01T03:23:55.294Z,92.84
2023-02-01T03:24:55.292Z,92.94
2023-02-01T03:25:55.267Z,92.84
2023-02-01T03:26:55.263Z,92.74
2023-02-01T03:27:55.275Z,92.74
2023-02-01T03:28:55.245Z,93.25
2023-02-01T03:29:56.223Z,92.74
2023-02-01T03:30:55.227Z,92.43
2023-02-01T03:31:55.272Z,92.94
2023-02-01T03:32:55.215Z,92.84
2023-02-01T03:33:55.996Z,93.00
2023-02-01T03:34:55.196Z,92.63
2023-02-01T03:35:55.178Z,92.63
2023-02-01T03:36:56.179Z,91.86
2023-02-01T03:37:55.177Z,92.32
2023-02-01T03:38:55.171Z,92.32
2023-02-01T03:39:55.157Z,92.18
2023-02-01T03:40:55.152Z,92.28
2023-02-01T03:41:55.145Z,91.86
2023-02-01T03:42:55.135Z,92.18
2023-02-01T03:43:55.128Z,91.76
2023-02-01T03:44:55.121Z,92.69
2023-02-01T03:45:55.158Z,92.44
2023-02-01T03:46:55.103Z,91.55
2023-02-01T03:47:55.106Z,92.07
2023-02-01T03:48:55.090Z,91.86
2023-02-01T03:49:55.084Z,91.86
2023-02-01T03:50:55.998Z,91.97
2023-02-01T03:51:55.124Z,92.18
2023-02-01T03:52:55.055Z,91.76
2023-02-01T03:53:56.001Z,91.97
2023-02-01T03:54:55.059Z,91.55
2023-02-01T03:55:55.035Z,91.66
2023-02-01T03:56:55.028Z,91.66
2023-02-01T03:57:55.007Z,91.66
2023-02-01T03:58:55.022Z,91.55
2023-02-01T03:59:55.009Z,91.45
2023-02-01T04:00:55.043Z,91.55
2023-02-01T04:03:01.845Z,91.03
2023-02-01T04:04:01.830Z,91.14
2023-02-01T04:05:02.906Z,91.24
2023-02-01T04:06:02.902Z,90.83
2023-02-01T04:07:02.896Z,91.14
2023-02-01T04:08:02.883Z,91.35
2023-02-01T04:09:02.870Z,91.03
2023-02-01T04:10:02.874Z,90.93
2023-02-01T04:11:02.856Z,91.14
2023-02-01T04:12:03.759Z,91.03
2023-02-01T04:13:02.842Z,90.83
2023-02-01T04:14:02.839Z,91.03
2023-02-01T04:15:03.684Z,90.72
2023-02-01T04:16:02.835Z,90.72
2023-02-01T04:17:02.814Z,90.52
2023-02-01T04:18:02.808Z,90.31
2023-02-01T04:19:02.804Z,90.41
2023-02-01T04:20:02.811Z,90.41
2023-02-01T04:21:02.775Z,90.20
2023-02-01T04:22:02.784Z,90.31
2023-02-01T04:23:02.761Z,90.41
2023-02-01T04:24:02.754Z,89.79
2023-02-01T04:25:02.748Z,90.00
2023-02-01T04:26:03.741Z,90.10
2023-02-01T04:27:02.728Z,90.14
2023-02-01T04:28:02.714Z,89.89
2023-02-01T04:29:02.729Z,89.69
2023-02-01T04:30:02.707Z,89.38
2023-02-01T04:31:02.780Z,90.20
2023-02-01T04:32:02.690Z,89.89
2023-02-01T04:33:02.677Z,89.89
2023-02-01T04:34:02.677Z,89.79
2023-02-01T04:35:02.712Z,89.48
2023-02-01T04:36:02.654Z,89.58
2023-02-01T04:37:02.650Z,89.94
2023-02-01T04:38:02.642Z,90.04
2023-02-01T04:39:02.641Z,89.94
2023-02-01T04:40:03.271Z,89.94
2023-02-01T04:41:02.618Z,90.04
2023-02-01T04:42:02.613Z,90.04
2023-02-01T04:43:02.606Z,90.25
2023-02-01T04:44:02.601Z,89.62
2023-02-01T04:45:02.582Z,89.94
2023-02-01T04:46:02.619Z,90.25
2023-02-01T04:47:02.561Z,89.94
2023-02-01T04:48:02.556Z,90.04
2023-02-01T04:49:02.556Z,89.62
2023-02-01T04:50:02.558Z,89.73
2023-02-01T04:51:02.548Z,90.56
2023-02-01T04:52:02.542Z,90.56
2023-02-01T04:53:02.528Z,89.83
2023-02-01T04:54:02.516Z,89.62
2023-02-01T04:55:02.520Z,89.83
2023-02-01T04:56:02.513Z,90.04
2023-02-01T04:57:02.496Z,90.04
2023-02-01T04:58:02.493Z,89.94
2023-02-01T04:59:02.533Z,89.94
2023-02-01T05:00:02.478Z,89.83
2023-02-01T05:01:02.493Z,89.83
2023-02-01T05:02:02.459Z,90.25
2023-02-01T05:03:02.453Z,90.60
2023-02-01T05:04:03.151Z,90.50
2023-02-01T05:05:02.516Z,90.39
2023-02-01T05:06:02.439Z,90.29
2023-02-01T05:07:02.439Z,90.50
2023-02-01T05:08:02.414Z,90.04
2023-02-01T05:09:02.413Z,90.19
2023-02-01T05:10:02.412Z,90.19
2023-02-01T05:11:02.385Z,90.08
2023-02-01T05:12:03.398Z,89.98
2023-02-01T05:13:02.385Z,89.36
2023-02-01T05:14:02.748Z,89.46
2023-02-01T05:15:03.375Z,89.15
2023-02-01T05:16:02.425Z,89.09
2023-02-01T05:17:03.298Z,88.63
2023-02-01T05:18:02.344Z,87.74
2023-02-01T05:19:02.332Z,87.59
2023-02-01T05:20:02.336Z,86.87
2023-02-01T05:21:02.315Z,86.87
2023-02-01T05:22:02.323Z,87.18
2023-02-01T05:23:02.335Z,87.28
2023-02-01T05:24:02.298Z,86.45
2023-02-01T05:25:03.281Z,86.55
2023-02-01T05:26:02.286Z,86.45
2023-02-01T05:27:02.803Z,86.66
2023-02-01T05:28:02.457Z,85.94
2023-02-01T05:29:02.256Z,85.00
2023-02-01T05:30:02.269Z,85.73
2023-02-01T05:31:02.832Z,85.21
2023-02-01T05:32:19.374Z,85.31
2023-02-01T05:33:06.205Z,85.31
2023-02-01T05:34:03.209Z,85.42
2023-02-01T05:35:02.211Z,85.21
2023-02-01T05:36:02.206Z,85.31
2023-02-01T05:37:02.212Z,85.52
2023-02-01T05:38:02.188Z,85.21
2023-02-01T05:39:02.261Z,85.87
2023-02-01T05:40:02.172Z,85.63
2023-02-01T05:41:02.165Z,85.73
2023-02-01T05:42:02.154Z,85.56
2023-02-01T05:43:02.141Z,85.35
2023-02-01T05:44:02.137Z,85.77
2023-02-01T05:45:02.136Z,85.77
2023-02-01T05:46:02.151Z,85.56
2023-02-01T05:47:02.115Z,85.77
2023-02-01T05:48:02.108Z,85.56
2023-02-01T05:49:02.107Z,85.04
2023-02-01T05:50:02.090Z,85.77
2023-02-01T05:51:02.088Z,85.77
2023-02-01T05:52:02.087Z,85.35
2023-02-01T05:53:02.068Z,84.73
2023-02-01T05:54:02.069Z,85.81
2023-02-01T05:55:02.056Z,85.77
2023-02-01T05:56:02.052Z,85.56
2023-02-01T05:57:02.039Z,85.77
2023-02-01T05:58:02.032Z,85.46
2023-02-01T05:59:02.767Z,85.81
2023-02-01T06:00:02.024Z,84.63
2023-02-01T06:01:02.015Z,85.87
2023-02-01T06:02:02.010Z,85.77
2023-02-01T06:03:02.056Z,85.35
2023-02-01T06:04:02.020Z,85.56
2023-02-01T06:05:01.975Z,85.87
2023-02-01T06:06:02.010Z,85.56
2023-02-01T06:07:01.961Z,85.56
2023-02-01T06:08:01.947Z,85.66
2023-02-01T06:09:01.949Z,85.46
2023-02-01T06:10:01.962Z,84.42
2023-02-01T06:11:01.937Z,84.42
2023-02-01T06:12:01.924Z,84.73
2023-02-01T06:13:01.923Z,84.52
2023-02-01T06:14:01.943Z,84.69
2023-02-01T06:15:02.722Z,85.00
2023-02-01T06:16:04.714Z,84.83
2023-02-01T06:17:01.881Z,84.52
2023-02-01T06:18:01.871Z,84.21
2023-02-01T06:19:01.886Z,83.90
2023-02-01T06:20:01.857Z,83.55
2023-02-01T06:21:01.866Z,83.69
2023-02-01T06:22:01.841Z,83.65
2023-02-01T06:23:01.853Z,83.65
2023-02-01T06:24:01.839Z,83.80
2023-02-01T06:25:01.820Z,83.69
2023-02-01T06:26:01.847Z,84.73
2023-02-01T06:27:01.813Z,84.11
2023-02-01T06:28:01.800Z,84.42
2023-02-01T06:29:01.794Z,84.21
2023-02-01T06:30:01.787Z,84.11
2023-02-01T06:31:01.978Z,83.69
2023-02-01T06:32:03.378Z,83.90
2023-02-01T06:33:02.289Z,84.11
2023-02-01T06:34:01.759Z,83.80
2023-02-01T06:35:01.740Z,83.48
2023-02-01T06:36:01.757Z,83.69
2023-02-01T06:37:01.727Z,84.00
2023-02-01T06:38:01.751Z,84.11
2023-02-01T06:39:01.726Z,84.11
2023-02-01T06:40:01.754Z,83.90
2023-02-01T06:41:01.699Z,83.90
2023-02-01T06:42:33.907Z,83.59
2023-02-01T06:43:01.683Z,83.80
2023-02-01T06:44:01.680Z,83.69
2023-02-01T06:45:01.679Z,83.45
2023-02-01T06:46:01.663Z,83.24
2023-02-01T06:47:02.281Z,83.14
2023-02-01T06:48:01.643Z,83.03
2023-02-01T06:49:01.648Z,83.14
2023-02-01T06:50:01.630Z,83.24
2023-02-01T06:51:01.625Z,83.34
2023-02-01T06:52:01.610Z,83.10
2023-02-01T06:53:01.617Z,83.20
2023-02-01T06:54:02.329Z,83.34
2023-02-01T06:55:01.628Z,82.72
2023-02-01T06:56:01.614Z,82.93
2023-02-01T06:57:01.592Z,82.93
2023-02-01T06:58:01.580Z,83.14
2023-02-01T06:59:01.570Z,82.89
2023-02-01T07:00:01.602Z,82.68
2023-02-01T07:01:01.594Z,82.37
2023-02-01T07:02:01.622Z,82.68
2023-02-01T07:03:01.530Z,82.27
2023-02-01T07:04:01.562Z,82.27
2023-02-01T07:05:01.516Z,82.37
2023-02-01T07:06:01.526Z,82.23
2023-02-01T07:07:01.497Z,81.82
2023-02-01T07:08:01.493Z,81.71
2023-02-01T07:09:01.494Z,82.03
2023-02-01T07:10:01.473Z,81.92
2023-02-01T07:11:01.479Z,81.61
2023-02-01T07:12:01.468Z,81.82
2023-02-01T07:13:01.450Z,82.03
2023-02-01T07:14:01.467Z,82.23
2023-02-01T07:15:01.440Z,82.23
2023-02-01T07:16:01.462Z,81.92
2023-02-01T07:17:01.413Z,81.82
2023-02-01T07:18:01.421Z,81.92
2023-02-01T07:19:01.410Z,81.51
2023-02-01T07:20:01.394Z,81.26
2023-02-01T07:21:01.414Z,81.05
2023-02-01T07:22:01.390Z,81.26
2023-02-01T07:23:02.254Z,80.95
2023-02-01T07:24:03.371Z,80.85
2023-02-01T07:25:01.394Z,80.74
2023-02-01T07:26:01.377Z,80.54
2023-02-01T07:27:01.753Z,80.71
2023-02-01T07:28:01.343Z,80.50
2023-02-01T07:29:01.340Z,80.81
2023-02-01T07:30:02.326Z,80.40
2023-02-01T07:31:02.954Z,79.88
2023-02-01T07:32:01.336Z,80.29
2023-02-01T07:33:01.301Z,79.98
2023-02-01T07:34:01.307Z,80.26
2023-02-01T07:35:01.301Z,80.15
2023-02-01T07:36:01.270Z,80.40
2023-02-01T07:37:01.271Z,79.94
2023-02-01T07:38:01.271Z,80.05
2023-02-01T07:39:01.273Z,79.84
2023-02-01T07:40:01.280Z,79.63
2023-02-01T07:41:01.246Z,79.63
2023-02-01T07:42:01.226Z,79.33
2023-02-01T07:43:01.221Z,79.33
2023-02-01T07:44:01.230Z,79.43
2023-02-01T07:45:11.218Z,78.91
2023-02-01T07:46:03.880Z,78.98
2023-02-01T07:47:01.217Z,78.98
2023-02-01T07:48:01.202Z,79.08
2023-02-01T07:49:01.192Z,79.08
2023-02-01T07:50:01.204Z,79.39
2023-02-01T07:51:01.193Z,79.12
2023-02-01T07:52:01.165Z,79.19
2023-02-01T07:53:01.171Z,79.19
2023-02-01T07:54:01.172Z,79.70
2023-02-01T07:55:01.148Z,79.39
2023-02-01T07:56:01.128Z,79.36
2023-02-01T07:57:01.153Z,79.49
2023-02-01T07:58:01.187Z,78.77
2023-02-01T07:59:01.115Z,79.56
2023-02-01T08:00:01.087Z,79.36
2023-02-01T08:01:02.140Z,78.63
2023-02-01T08:02:01.805Z,78.63
2023-02-01T08:03:01.083Z,78.56
2023-02-01T08:04:02.925Z,78.63
2023-02-01T08:05:01.058Z,78.53
2023-02-01T08:06:01.059Z,78.63
2023-02-01T08:07:01.054Z,78.42
2023-02-01T08:08:01.048Z,78.11
2023-02-01T08:09:01.038Z,78.42
2023-02-01T08:10:01.034Z,78.32
2023-02-01T08:11:01.007Z,78.22
2023-02-01T08:12:01.000Z,77.70
2023-02-01T08:13:01.043Z,78.32
2023-02-01T08:14:00.993Z,78.28
2023-02-01T08:15:00.976Z,78.28
2023-02-01T08:16:00.977Z,78.18
2023-02-01T08:17:00.971Z,77.98
2023-02-01T08:18:01.037Z,77.87
2023-02-01T08:19:00.963Z,79.01
2023-02-01T08:20:00.978Z,77.98
2023-02-01T08:21:00.939Z,78.08
2023-02-01T08:22:00.925Z,77.94
2023-02-01T08:23:00.924Z,77.84
2023-02-01T08:24:03.839Z,77.63
2023-02-01T08:25:00.904Z,77.32
2023-02-01T08:26:00.891Z,77.73
2023-02-01T08:27:02.767Z,77.94
2023-02-01T08:28:01.795Z,77.59
2023-02-01T08:29:00.877Z,78.21
2023-02-01T08:30:00.871Z,77.49
2023-02-01T08:31:02.925Z,77.28
2023-02-01T08:32:00.876Z,78.05
2023-02-01T08:33:00.840Z,77.91
2023-02-01T08:34:02.773Z,77.94
2023-02-01T08:35:00.838Z,77.84
2023-02-01T08:36:01.760Z,78.05
2023-02-01T08:37:00.815Z,77.63
2023-02-01T08:38:00.811Z,78.05
2023-02-01T08:39:00.805Z,78.97
2023-02-01T08:40:00.796Z,77.94
2023-02-01T08:41:00.781Z,79.49
2023-02-01T08:42:00.775Z,79.80
2023-02-01T08:43:00.874Z,79.83
2023-02-01T08:44:00.762Z,79.01
2023-02-01T08:45:00.748Z,79.69
2023-02-01T08:46:01.442Z,79.32
2023-02-01T08:47:00.763Z,79.83
2023-02-01T08:48:00.732Z,80.35
2023-02-01T08:49:00.713Z,79.59
2023-02-01T08:50:01.727Z,79.69
2023-02-01T08:51:00.710Z,79.94
2023-02-01T08:52:04.028Z,79.49
2023-02-01T08:53:02.678Z,79.49
2023-02-01T08:54:00.678Z,79.59
2023-02-01T08:55:00.679Z,79.76
2023-02-01T08:56:00.663Z,79.35
2023-02-01T08:57:00.667Z,78.63
2023-02-01T08:58:00.650Z,78.01
2023-02-01T08:59:00.641Z,77.91
2023-02-01T09:00:05.722Z,77.70
2023-02-01T09:01:00.688Z,77.70
2023-02-01T09:02:02.272Z,77.49
2023-02-01T09:03:01.605Z,77.56
2023-02-01T09:04:02.498Z,77.45
2023-02-01T09:05:02.291Z,77.01
2023-02-01T09:06:00.599Z,76.80
2023-02-01T09:07:00.622Z,75.77
2023-02-01T09:08:00.592Z,76.18
2023-02-01T09:09:00.574Z,75.98
2023-02-01T09:10:00.555Z,75.67
2023-02-01T09:11:02.995Z,76.08
2023-02-01T09:12:01.548Z,75.73
2023-02-01T09:13:00.523Z,75.77
2023-02-01T09:14:01.357Z,75.32
2023-02-01T09:15:00.766Z,75.32
2023-02-01T09:16:00.652Z,75.32
2023-02-01T09:17:00.534Z,75.43
2023-02-01T09:18:00.494Z,75.29
2023-02-01T09:19:24.489Z,74.36
2023-02-01T09:20:02.484Z,74.91
2023-02-01T09:21:00.469Z,74.91
2023-02-01T09:22:00.468Z,74.29
2023-02-01T09:23:00.443Z,73.85
2023-02-01T09:24:00.460Z,74.08
2023-02-01T09:25:00.460Z,74.08
2023-02-01T09:26:00.424Z,74.50
2023-02-01T21:25:04.384Z,89.92
2023-02-01T21:26:04.889Z,89.96
2023-02-01T21:27:04.889Z,90.23
2023-02-01T21:28:04.888Z,90.23
2023-02-01T21:29:04.873Z,90.12
2023-02-01T21:30:06.363Z,90.12
2023-02-01T21:31:04.868Z,90.12
2023-02-01T21:32:04.968Z,90.02
2023-02-01T21:33:04.841Z,89.61
2023-02-01T21:34:04.897Z,89.81
2023-02-01T21:35:04.811Z,89.81
2023-02-01T21:36:04.804Z,90.12
2023-02-01T21:37:04.806Z,90.44
2023-02-01T21:38:04.803Z,90.27
2023-02-01T21:39:04.822Z,90.06
2023-02-01T21:40:04.778Z,90.37
2023-02-01T21:41:04.769Z,91.00
2023-02-01T21:42:04.765Z,91.20
2023-02-01T21:43:04.770Z,91.52
2023-02-01T21:44:04.756Z,91.41
2023-02-01T21:45:04.755Z,91.45
2023-02-01T21:46:04.795Z,91.66
2023-02-01T21:47:06.387Z,92.18
2023-02-01T21:48:04.716Z,92.18
2023-02-01T21:49:06.866Z,91.97
2023-02-01T21:50:04.691Z,92.49
2023-02-01T21:51:08.464Z,92.59
2023-02-01T21:52:04.683Z,92.59
2023-02-01T21:53:05.428Z,92.49
2023-02-01T21:54:12.570Z,92.18
2023-02-01T21:55:04.655Z,92.18
2023-02-01T21:56:04.649Z,92.80
2023-02-01T21:57:04.655Z,92.38
2023-02-01T21:58:04.637Z,92.38
2023-02-01T21:59:04.636Z,92.59
2023-02-01T22:00:04.622Z,92.38
2023-02-01T22:01:04.633Z,92.38
2023-02-01T22:02:04.737Z,92.59
2023-02-01T22:03:04.608Z,92.07
2023-02-01T22:04:04.574Z,92.69
2023-02-01T22:05:04.585Z,92.59
2023-02-01T22:06:04.561Z,92.38
2023-02-01T22:07:04.544Z,91.76
2023-02-01T22:08:05.555Z,91.91
2023-02-01T22:09:04.547Z,92.38
2023-02-01T22:10:04.589Z,91.86
2023-02-01T22:11:04.517Z,91.86
2023-02-01T22:12:04.514Z,92.53
2023-02-01T22:13:04.519Z,91.91
2023-02-01T22:14:04.491Z,92.07
2023-02-01T22:15:04.500Z,92.38
2023-02-01T22:16:04.496Z,92.22
2023-02-01T22:17:05.406Z,92.63
2023-02-01T22:18:04.464Z,92.43
2023-02-01T22:19:04.550Z,92.07
2023-02-01T22:20:04.461Z,92.18
2023-02-01T22:21:04.459Z,92.07
2023-02-01T22:22:04.437Z,92.01
2023-02-01T22:23:04.434Z,92.07
2023-02-01T22:24:04.537Z,92.22
2023-02-01T22:25:04.411Z,92.84
2023-02-01T22:26:04.434Z,92.80
2023-02-01T22:27:14.449Z,92.63
2023-02-01T22:28:32.840Z,92.49
2023-02-01T22:29:07.409Z,92.69
2023-02-01T22:30:04.367Z,92.59
2023-02-01T22:31:06.138Z,91.97
2023-02-01T22:32:05.893Z,92.18
2023-02-01T22:33:04.405Z,92.55
2023-02-01T22:34:04.364Z,92.69
2023-02-01T22:35:06.935Z,92.49
2023-02-01T22:36:04.371Z,92.55
2023-02-01T22:37:04.307Z,92.03
2023-02-01T22:38:04.307Z,92.35
2023-02-01T22:39:04.302Z,91.72
2023-02-01T22:40:04.326Z,91.83
2023-02-01T22:41:04.348Z,91.41
2023-02-01T22:42:04.272Z,91.47
2023-02-01T22:43:04.259Z,91.16
2023-02-01T22:44:04.967Z,91.37
2023-02-01T22:45:04.246Z,91.68
2023-02-01T22:46:05.899Z,91.12
2023-02-01T22:47:04.251Z,91.06
2023-02-01T22:48:04.986Z,90.95
2023-02-01T22:49:04.502Z,91.02
2023-02-01T22:50:06.215Z,91.06
2023-02-01T22:51:05.080Z,90.50
2023-02-01T22:52:04.169Z,90.50
2023-02-01T22:53:04.156Z,90.29
2023-02-01T22:54:04.172Z,90.91
2023-02-01T22:55:04.144Z,91.02
2023-02-01T22:56:06.392Z,91.02
2023-02-01T22:57:04.128Z,90.91
2023-02-01T22:58:06.005Z,91.43
2023-02-01T22:59:04.099Z,91.02
2023-02-01T23:00:04.121Z,91.12
2023-02-01T23:01:04.113Z,91.64
2023-02-01T23:02:04.077Z,91.22
2023-02-01T23:03:04.106Z,91.22
2023-02-01T23:04:04.068Z,91.33
2023-02-01T23:05:04.065Z,91.43
2023-02-01T23:06:04.055Z,91.02
2023-02-01T23:07:04.045Z,90.08
2023-02-01T23:08:04.015Z,90.56
2023-02-01T23:09:05.034Z,89.67
2023-02-01T23:10:04.005Z,89.98
2023-02-01T23:11:04.002Z,89.56
2023-02-01T23:12:03.994Z,89.67
2023-02-01T23:13:04.011Z,89.46
2023-02-01T23:14:03.969Z,88.90
2023-02-01T23:15:03.967Z,89.00
2023-02-01T23:16:03.993Z,88.90
2023-02-01T23:17:03.977Z,89.00
2023-02-01T23:18:03.960Z,88.90
2023-02-01T23:19:03.977Z,88.18
2023-02-01T23:20:03.932Z,88.18
2023-02-01T23:21:03.924Z,87.87
2023-02-01T23:22:04.043Z,88.07
2023-02-01T23:23:03.917Z,87.97
2023-02-01T23:24:05.862Z,86.93
2023-02-01T23:25:03.889Z,87.35
2023-02-01T23:26:05.010Z,86.93
2023-02-01T23:27:05.987Z,87.35
2023-02-01T23:28:03.864Z,86.52
2023-02-01T23:29:03.855Z,87.04
2023-02-01T23:30:03.848Z,86.62
2023-02-01T23:31:03.919Z,86.72
2023-02-01T23:32:05.450Z,86.52
2023-02-01T23:33:03.834Z,86.35
2023-02-01T23:34:03.816Z,86.25
2023-02-01T23:35:03.845Z,85.11
2023-02-01T23:36:03.827Z,85.42
2023-02-01T23:37:03.796Z,85.11
2023-02-01T23:38:03.782Z,85.83
2023-02-01T23:39:03.778Z,85.58
2023-02-01T23:40:03.763Z,85.31
2023-02-01T23:41:03.748Z,84.90
2023-02-01T23:42:04.442Z,85.06
2023-02-01T23:43:04.386Z,84.86
2023-02-01T23:44:03.736Z,85.00
2023-02-01T23:45:03.738Z,84.38
2023-02-01T23:46:03.740Z,85.00
2023-02-01T23:47:03.724Z,84.69
2023-02-01T23:48:03.703Z,85.11
2023-02-01T23:49:03.698Z,85.73
2023-02-01T23:50:03.691Z,85.52
2023-02-01T23:51:03.689Z,85.52
2023-02-01T23:52:03.663Z,86.04
2023-02-01T23:53:05.375Z,85.73
2023-02-01T23:54:03.651Z,85.89
2023-02-01T23:55:06.446Z,87.04
2023-02-01T23:56:03.641Z,87.28
2023-02-01T23:57:03.646Z,87.04
2023-02-01T23:58:03.621Z,87.14
2023-02-01T23:59:03.609Z,86.97
